sensor_id;sensor_type;location;lat;lon;timestamp;P1;durP1;ratioP1;P2;durP2;ratioP2
43297;SDS011;28892;55.640;37.532;2023-04-30T00:02:01;12.88;;;8.40;;
43297;SDS011;28892;55.640;37.532;2023-04-30T00:04:27;14.05;;;8.95;;
43297;SDS011;28892;55.640;37.532;2023-04-30T00:06:53;14.02;;;8.70;;
43297;SDS011;28892;55.640;37.532;2023-04-30T00:09:20;13.90;;;9.00;;
43297;SDS011;28892;55.640;37.532;2023-04-30T00:11:48;11.43;;;8.48;;
43297;SDS011;28892;55.640;37.532;2023-04-30T00:14:14;10.48;;;8.10;;
43297;SDS011;28892;55.640;37.532;2023-04-30T00:16:40;10.45;;;7.93;;
43297;SDS011;28892;55.640;37.532;2023-04-30T00:19:08;15.77;;;8.95;;
43297;SDS011;28892;55.640;37.532;2023-04-30T00:21:34;11.98;;;8.93;;
43297;SDS011;28892;55.640;37.532;2023-04-30T00:24:01;11.80;;;7.63;;
43297;SDS011;28892;55.640;37.532;2023-04-30T00:26:27;11.57;;;8.15;;
43297;SDS011;28892;55.640;37.532;2023-04-30T00:28:53;12.48;;;8.63;;
43297;SDS011;28892;55.640;37.532;2023-04-30T00:31:19;14.27;;;8.40;;
43297;SDS011;28892;55.640;37.532;2023-04-30T00:33:45;10.65;;;7.88;;
43297;SDS011;28892;55.640;37.532;2023-04-30T00:36:11;11.57;;;8.25;;
43297;SDS011;28892;55.640;37.532;2023-04-30T00:38:37;11.93;;;8.45;;
43297;SDS011;28892;55.640;37.532;2023-04-30T00:41:04;10.95;;;7.93;;
43297;SDS011;28892;55.640;37.532;2023-04-30T00:43:30;9.38;;;8.38;;
43297;SDS011;28892;55.640;37.532;2023-04-30T00:45:58;10.88;;;7.85;;
43297;SDS011;28892;55.640;37.532;2023-04-30T00:48:27;14.07;;;8.35;;
43297;SDS011;28892;55.640;37.532;2023-04-30T00:50:58;18.52;;;8.02;;
43297;SDS011;28892;55.640;37.532;2023-04-30T00:53:26;13.48;;;8.45;;
43297;SDS011;28892;55.640;37.532;2023-04-30T00:55:54;9.90;;;8.07;;
43297;SDS011;28892;55.640;37.532;2023-04-30T00:58:25;11.48;;;8.65;;
43297;SDS011;28892;55.640;37.532;2023-04-30T01:00:52;14.07;;;8.50;;
43297;SDS011;28892;55.640;37.532;2023-04-30T01:03:18;12.38;;;8.73;;
43297;SDS011;28892;55.640;37.532;2023-04-30T01:05:47;12.38;;;8.32;;
43297;SDS011;28892;55.640;37.532;2023-04-30T01:08:15;14.20;;;9.02;;
43297;SDS011;28892;55.640;37.532;2023-04-30T01:11:06;12.45;;;8.93;;
43297;SDS011;28892;55.640;37.532;2023-04-30T01:17:07;14.30;;;11.18;;
43297;SDS011;28892;55.640;37.532;2023-04-30T01:20:03;11.00;;;9.20;;
43297;SDS011;28892;55.640;37.532;2023-04-30T01:22:43;13.40;;;10.15;;
43297;SDS011;28892;55.640;37.532;2023-04-30T01:25:20;12.82;;;9.65;;
43297;SDS011;28892;55.640;37.532;2023-04-30T01:30:37;14.52;;;10.30;;
43297;SDS011;28892;55.640;37.532;2023-04-30T01:33:05;12.98;;;9.68;;
43297;SDS011;28892;55.640;37.532;2023-04-30T01:44:53;15.27;;;9.65;;
43297;SDS011;28892;55.640;37.532;2023-04-30T01:47:59;15.85;;;9.10;;
43297;SDS011;28892;55.640;37.532;2023-04-30T01:53:39;11.85;;;9.30;;
43297;SDS011;28892;55.640;37.532;2023-04-30T01:56:12;14.38;;;9.13;;
43297;SDS011;28892;55.640;37.532;2023-04-30T01:58:54;13.98;;;9.40;;
43297;SDS011;28892;55.640;37.532;2023-04-30T02:01:28;13.60;;;8.68;;
43297;SDS011;28892;55.640;37.532;2023-04-30T02:03:58;11.65;;;9.18;;
43297;SDS011;28892;55.640;37.532;2023-04-30T02:06:25;12.57;;;9.77;;
43297;SDS011;28892;55.640;37.532;2023-04-30T02:08:53;11.13;;;9.32;;
43297;SDS011;28892;55.640;37.532;2023-04-30T02:11:20;10.88;;;9.30;;
43297;SDS011;28892;55.640;37.532;2023-04-30T02:13:46;11.05;;;8.98;;
43297;SDS011;28892;55.640;37.532;2023-04-30T02:16:12;13.02;;;9.40;;
43297;SDS011;28892;55.640;37.532;2023-04-30T02:18:38;13.13;;;9.30;;
43297;SDS011;28892;55.640;37.532;2023-04-30T02:21:03;13.98;;;10.10;;
43297;SDS011;28892;55.640;37.532;2023-04-30T02:23:30;12.40;;;9.10;;
43297;SDS011;28892;55.640;37.532;2023-04-30T02:25:58;13.25;;;9.73;;
43297;SDS011;28892;55.640;37.532;2023-04-30T02:28:24;12.52;;;8.80;;
43297;SDS011;28892;55.640;37.532;2023-04-30T02:30:50;15.52;;;9.57;;
43297;SDS011;28892;55.640;37.532;2023-04-30T02:33:16;12.75;;;9.52;;
43297;SDS011;28892;55.640;37.532;2023-04-30T02:35:42;13.43;;;8.43;;
43297;SDS011;28892;55.640;37.532;2023-04-30T02:38:08;17.38;;;9.57;;
43297;SDS011;28892;55.640;37.532;2023-04-30T02:40:34;18.35;;;9.23;;
43297;SDS011;28892;55.640;37.532;2023-04-30T02:43:00;16.95;;;9.82;;
43297;SDS011;28892;55.640;37.532;2023-04-30T02:45:26;14.05;;;8.65;;
43297;SDS011;28892;55.640;37.532;2023-04-30T02:47:52;14.77;;;9.63;;
43297;SDS011;28892;55.640;37.532;2023-04-30T02:50:18;11.85;;;9.30;;
43297;SDS011;28892;55.640;37.532;2023-04-30T02:52:46;15.90;;;9.75;;
43297;SDS011;28892;55.640;37.532;2023-04-30T02:55:12;14.10;;;9.88;;
43297;SDS011;28892;55.640;37.532;2023-04-30T02:57:39;11.27;;;9.00;;
43297;SDS011;28892;55.640;37.532;2023-04-30T03:00:05;12.27;;;8.52;;
43297;SDS011;28892;55.640;37.532;2023-04-30T03:02:32;12.73;;;9.18;;
43297;SDS011;28892;55.640;37.532;2023-04-30T03:04:58;11.82;;;8.73;;
43297;SDS011;28892;55.640;37.532;2023-04-30T03:07:24;13.52;;;8.48;;
43297;SDS011;28892;55.640;37.532;2023-04-30T03:09:49;11.15;;;8.20;;
43297;SDS011;28892;55.640;37.532;2023-04-30T03:12:18;11.57;;;8.45;;
43297;SDS011;28892;55.640;37.532;2023-04-30T03:14:44;16.27;;;10.40;;
43297;SDS011;28892;55.640;37.532;2023-04-30T03:17:12;12.40;;;8.30;;
43297;SDS011;28892;55.640;37.532;2023-04-30T03:19:38;14.32;;;8.80;;
43297;SDS011;28892;55.640;37.532;2023-04-30T03:22:07;10.90;;;8.88;;
43297;SDS011;28892;55.640;37.532;2023-04-30T03:24:33;13.98;;;8.85;;
43297;SDS011;28892;55.640;37.532;2023-04-30T03:27:01;16.83;;;9.15;;
43297;SDS011;28892;55.640;37.532;2023-04-30T03:29:27;14.60;;;9.05;;
43297;SDS011;28892;55.640;37.532;2023-04-30T03:31:56;16.40;;;9.40;;
43297;SDS011;28892;55.640;37.532;2023-04-30T03:34:22;13.98;;;10.23;;
43297;SDS011;28892;55.640;37.532;2023-04-30T03:36:48;20.45;;;10.15;;
43297;SDS011;28892;55.640;37.532;2023-04-30T03:39:19;16.13;;;10.20;;
43297;SDS011;28892;55.640;37.532;2023-04-30T03:41:45;15.77;;;9.85;;
43297;SDS011;28892;55.640;37.532;2023-04-30T03:44:24;14.35;;;10.00;;
43297;SDS011;28892;55.640;37.532;2023-04-30T03:46:51;14.40;;;10.07;;
43297;SDS011;28892;55.640;37.532;2023-04-30T03:49:18;18.27;;;11.05;;
43297;SDS011;28892;55.640;37.532;2023-04-30T03:51:44;15.82;;;10.68;;
43297;SDS011;28892;55.640;37.532;2023-04-30T03:54:11;18.98;;;10.85;;
43297;SDS011;28892;55.640;37.532;2023-04-30T03:56:40;20.15;;;11.23;;
43297;SDS011;28892;55.640;37.532;2023-04-30T03:59:06;18.40;;;11.00;;
43297;SDS011;28892;55.640;37.532;2023-04-30T04:01:32;16.23;;;11.35;;
43297;SDS011;28892;55.640;37.532;2023-04-30T04:03:59;17.63;;;11.50;;
43297;SDS011;28892;55.640;37.532;2023-04-30T04:06:28;16.33;;;11.82;;
43297;SDS011;28892;55.640;37.532;2023-04-30T04:08:55;18.02;;;11.25;;
43297;SDS011;28892;55.640;37.532;2023-04-30T04:11:21;15.07;;;11.15;;
43297;SDS011;28892;55.640;37.532;2023-04-30T04:13:47;15.60;;;11.45;;
43297;SDS011;28892;55.640;37.532;2023-04-30T04:16:13;18.38;;;10.70;;
43297;SDS011;28892;55.640;37.532;2023-04-30T04:18:39;16.85;;;11.65;;
43297;SDS011;28892;55.640;37.532;2023-04-30T04:21:05;16.50;;;12.07;;
43297;SDS011;28892;55.640;37.532;2023-04-30T04:23:32;17.52;;;12.45;;
43297;SDS011;28892;55.640;37.532;2023-04-30T04:25:58;21.38;;;13.40;;
43297;SDS011;28892;55.640;37.532;2023-04-30T04:28:28;18.70;;;13.18;;
43297;SDS011;28892;55.640;37.532;2023-04-30T04:30:54;19.58;;;14.13;;
43297;SDS011;28892;55.640;37.532;2023-04-30T04:33:20;18.42;;;13.90;;
43297;SDS011;28892;55.640;37.532;2023-04-30T04:35:55;25.80;;;16.40;;
43297;SDS011;28892;55.640;37.532;2023-04-30T04:38:24;25.80;;;16.67;;
43297;SDS011;28892;55.640;37.532;2023-04-30T04:40:54;22.70;;;15.68;;
43297;SDS011;28892;55.640;37.532;2023-04-30T04:43:21;21.30;;;14.90;;
43297;SDS011;28892;55.640;37.532;2023-04-30T04:45:47;22.55;;;15.13;;
43297;SDS011;28892;55.640;37.532;2023-04-30T04:48:15;17.90;;;13.48;;
43297;SDS011;28892;55.640;37.532;2023-04-30T04:50:41;18.80;;;12.63;;
43297;SDS011;28892;55.640;37.532;2023-04-30T04:53:07;19.42;;;12.48;;
43297;SDS011;28892;55.640;37.532;2023-04-30T04:55:33;14.77;;;12.43;;
43297;SDS011;28892;55.640;37.532;2023-04-30T04:58:02;12.95;;;10.38;;
43297;SDS011;28892;55.640;37.532;2023-04-30T05:00:28;13.95;;;9.98;;
43297;SDS011;28892;55.640;37.532;2023-04-30T05:02:54;14.10;;;10.65;;
43297;SDS011;28892;55.640;37.532;2023-04-30T05:05:20;14.63;;;10.77;;
43297;SDS011;28892;55.640;37.532;2023-04-30T05:07:46;20.60;;;12.45;;
43297;SDS011;28892;55.640;37.532;2023-04-30T05:10:12;14.40;;;9.90;;
43297;SDS011;28892;55.640;37.532;2023-04-30T05:12:38;16.20;;;9.82;;
43297;SDS011;28892;55.640;37.532;2023-04-30T05:15:03;16.75;;;12.13;;
43297;SDS011;28892;55.640;37.532;2023-04-30T05:17:31;15.75;;;12.32;;
43297;SDS011;28892;55.640;37.532;2023-04-30T05:22:31;15.68;;;11.77;;
43297;SDS011;28892;55.640;37.532;2023-04-30T05:24:57;16.30;;;11.50;;
43297;SDS011;28892;55.640;37.532;2023-04-30T05:27:23;14.65;;;11.70;;
43297;SDS011;28892;55.640;37.532;2023-04-30T05:29:57;12.55;;;10.25;;
43297;SDS011;28892;55.640;37.532;2023-04-30T05:32:23;11.90;;;10.20;;
43297;SDS011;28892;55.640;37.532;2023-04-30T05:34:49;13.52;;;10.75;;
43297;SDS011;28892;55.640;37.532;2023-04-30T05:37:15;14.13;;;11.77;;
43297;SDS011;28892;55.640;37.532;2023-04-30T05:39:43;12.95;;;9.55;;
43297;SDS011;28892;55.640;37.532;2023-04-30T05:42:10;14.30;;;10.30;;
43297;SDS011;28892;55.640;37.532;2023-04-30T05:44:36;14.70;;;10.95;;
43297;SDS011;28892;55.640;37.532;2023-04-30T05:47:09;11.35;;;10.15;;
43297;SDS011;28892;55.640;37.532;2023-04-30T05:49:35;13.80;;;7.88;;
43297;SDS011;28892;55.640;37.532;2023-04-30T05:52:01;9.02;;;7.65;;
43297;SDS011;28892;55.640;37.532;2023-04-30T05:54:28;11.52;;;8.38;;
43297;SDS011;28892;55.640;37.532;2023-04-30T05:56:54;12.35;;;9.02;;
43297;SDS011;28892;55.640;37.532;2023-04-30T05:59:22;10.23;;;8.88;;
43297;SDS011;28892;55.640;37.532;2023-04-30T06:01:56;9.70;;;8.18;;
43297;SDS011;28892;55.640;37.532;2023-04-30T06:04:22;10.82;;;8.60;;
43297;SDS011;28892;55.640;37.532;2023-04-30T06:06:48;12.65;;;9.27;;
43297;SDS011;28892;55.640;37.532;2023-04-30T06:09:14;14.80;;;9.15;;
43297;SDS011;28892;55.640;37.532;2023-04-30T06:11:40;13.48;;;8.38;;
43297;SDS011;28892;55.640;37.532;2023-04-30T06:14:07;14.98;;;7.82;;
43297;SDS011;28892;55.640;37.532;2023-04-30T06:16:33;8.20;;;7.18;;
43297;SDS011;28892;55.640;37.532;2023-04-30T06:18:59;11.13;;;7.72;;
43297;SDS011;28892;55.640;37.532;2023-04-30T06:21:28;8.77;;;6.90;;
43297;SDS011;28892;55.640;37.532;2023-04-30T06:23:55;8.23;;;6.68;;
43297;SDS011;28892;55.640;37.532;2023-04-30T06:26:27;10.07;;;6.55;;
43297;SDS011;28892;55.640;37.532;2023-04-30T06:28:56;11.13;;;6.75;;
43297;SDS011;28892;55.640;37.532;2023-04-30T06:31:46;10.85;;;6.70;;
43297;SDS011;28892;55.640;37.532;2023-04-30T06:34:16;6.05;;;5.20;;
43297;SDS011;28892;55.640;37.532;2023-04-30T06:36:42;6.38;;;4.47;;
43297;SDS011;28892;55.640;37.532;2023-04-30T06:39:08;8.63;;;4.85;;
43297;SDS011;28892;55.640;37.532;2023-04-30T06:41:34;6.78;;;4.90;;
43297;SDS011;28892;55.640;37.532;2023-04-30T06:44:09;8.57;;;4.85;;
43297;SDS011;28892;55.640;37.532;2023-04-30T06:46:37;5.80;;;4.10;;
43297;SDS011;28892;55.640;37.532;2023-04-30T06:49:06;6.75;;;5.18;;
43297;SDS011;28892;55.640;37.532;2023-04-30T06:51:33;4.90;;;3.85;;
43297;SDS011;28892;55.640;37.532;2023-04-30T06:54:00;6.25;;;4.18;;
43297;SDS011;28892;55.640;37.532;2023-04-30T06:56:31;5.03;;;4.15;;
43297;SDS011;28892;55.640;37.532;2023-04-30T06:59:06;6.90;;;4.70;;
43297;SDS011;28892;55.640;37.532;2023-04-30T07:01:43;6.20;;;5.07;;
43297;SDS011;28892;55.640;37.532;2023-04-30T07:04:13;5.38;;;4.50;;
43297;SDS011;28892;55.640;37.532;2023-04-30T07:06:40;7.50;;;4.53;;
43297;SDS011;28892;55.640;37.532;2023-04-30T07:09:07;6.03;;;4.90;;
43297;SDS011;28892;55.640;37.532;2023-04-30T07:11:33;5.45;;;3.95;;
43297;SDS011;28892;55.640;37.532;2023-04-30T07:16:54;9.13;;;4.30;;
43297;SDS011;28892;55.640;37.532;2023-04-30T07:19:23;5.53;;;4.50;;
43297;SDS011;28892;55.640;37.532;2023-04-30T07:21:52;4.65;;;3.85;;
43297;SDS011;28892;55.640;37.532;2023-04-30T07:24:18;5.82;;;3.85;;
43297;SDS011;28892;55.640;37.532;2023-04-30T07:26:47;5.45;;;4.05;;
43297;SDS011;28892;55.640;37.532;2023-04-30T07:29:13;4.32;;;3.40;;
43297;SDS011;28892;55.640;37.532;2023-04-30T07:31:39;5.25;;;3.35;;
43297;SDS011;28892;55.640;37.532;2023-04-30T07:34:31;8.65;;;4.20;;
43297;SDS011;28892;55.640;37.532;2023-04-30T07:36:57;4.80;;;3.40;;
43297;SDS011;28892;55.640;37.532;2023-04-30T07:39:23;9.82;;;4.10;;
43297;SDS011;28892;55.640;37.532;2023-04-30T07:41:49;6.05;;;3.70;;
43297;SDS011;28892;55.640;37.532;2023-04-30T07:44:15;5.38;;;3.60;;
43297;SDS011;28892;55.640;37.532;2023-04-30T07:47:11;6.20;;;3.05;;
43297;SDS011;28892;55.640;37.532;2023-04-30T07:49:50;3.67;;;3.33;;
43297;SDS011;28892;55.640;37.532;2023-04-30T07:52:30;5.13;;;3.60;;
43297;SDS011;28892;55.640;37.532;2023-04-30T07:55:00;6.50;;;3.22;;
43297;SDS011;28892;55.640;37.532;2023-04-30T07:57:33;4.72;;;3.58;;
43297;SDS011;28892;55.640;37.532;2023-04-30T08:00:01;4.68;;;3.53;;
43297;SDS011;28892;55.640;37.532;2023-04-30T08:02:40;4.60;;;3.15;;
43297;SDS011;28892;55.640;37.532;2023-04-30T08:05:15;5.55;;;3.70;;
43297;SDS011;28892;55.640;37.532;2023-04-30T08:07:46;5.25;;;3.42;;
43297;SDS011;28892;55.640;37.532;2023-04-30T08:10:39;6.88;;;4.28;;
43297;SDS011;28892;55.640;37.532;2023-04-30T08:13:34;5.60;;;3.55;;
43297;SDS011;28892;55.640;37.532;2023-04-30T08:16:15;5.38;;;3.58;;
43297;SDS011;28892;55.640;37.532;2023-04-30T08:18:43;5.20;;;4.70;;
43297;SDS011;28892;55.640;37.532;2023-04-30T08:21:12;6.30;;;3.70;;
43297;SDS011;28892;55.640;37.532;2023-04-30T08:23:40;5.85;;;3.63;;
43297;SDS011;28892;55.640;37.532;2023-04-30T08:26:09;4.75;;;3.70;;
43297;SDS011;28892;55.640;37.532;2023-04-30T08:29:11;4.90;;;3.67;;
43297;SDS011;28892;55.640;37.532;2023-04-30T08:31:40;7.15;;;3.38;;
43297;SDS011;28892;55.640;37.532;2023-04-30T08:37:44;6.90;;;3.45;;
43297;SDS011;28892;55.640;37.532;2023-04-30T08:40:13;4.68;;;3.60;;
43297;SDS011;28892;55.640;37.532;2023-04-30T08:49:37;9.00;;;4.50;;
43297;SDS011;28892;55.640;37.532;2023-04-30T08:52:17;6.43;;;4.90;;
43297;SDS011;28892;55.640;37.532;2023-04-30T08:55:05;6.15;;;4.10;;
43297;SDS011;28892;55.640;37.532;2023-04-30T08:57:37;5.15;;;3.20;;
43297;SDS011;28892;55.640;37.532;2023-04-30T09:00:17;3.90;;;3.20;;
43297;SDS011;28892;55.640;37.532;2023-04-30T09:20:05;4.38;;;2.78;;
43297;SDS011;28892;55.640;37.532;2023-04-30T09:22:45;4.07;;;2.25;;
43297;SDS011;28892;55.640;37.532;2023-04-30T09:34:49;6.25;;;2.63;;
43297;SDS011;28892;55.640;37.532;2023-04-30T09:37:40;4.90;;;2.47;;
43297;SDS011;28892;55.640;37.532;2023-04-30T09:40:08;5.93;;;2.45;;
43297;SDS011;28892;55.640;37.532;2023-04-30T09:42:35;4.30;;;2.03;;
43297;SDS011;28892;55.640;37.532;2023-04-30T09:45:04;2.90;;;2.40;;
43297;SDS011;28892;55.640;37.532;2023-04-30T09:47:39;3.85;;;2.47;;
43297;SDS011;28892;55.640;37.532;2023-04-30T09:50:43;4.32;;;2.75;;
43297;SDS011;28892;55.640;37.532;2023-04-30T09:53:18;3.35;;;2.13;;
43297;SDS011;28892;55.640;37.532;2023-04-30T09:55:50;3.30;;;2.00;;
43297;SDS011;28892;55.640;37.532;2023-04-30T09:58:28;2.20;;;1.55;;
43297;SDS011;28892;55.640;37.532;2023-04-30T10:01:07;2.58;;;1.55;;
43297;SDS011;28892;55.640;37.532;2023-04-30T10:03:41;2.17;;;1.60;;
43297;SDS011;28892;55.640;37.532;2023-04-30T10:09:02;2.58;;;1.98;;
43297;SDS011;28892;55.640;37.532;2023-04-30T10:11:43;4.93;;;2.20;;
43297;SDS011;28892;55.640;37.532;2023-04-30T10:21:23;3.80;;;2.20;;
43297;SDS011;28892;55.640;37.532;2023-04-30T10:41:35;2.90;;;1.38;;
43297;SDS011;28892;55.640;37.532;2023-04-30T10:51:58;4.00;;;1.80;;
43297;SDS011;28892;55.640;37.532;2023-04-30T10:54:30;2.40;;;1.75;;
43297;SDS011;28892;55.640;37.532;2023-04-30T10:57:08;3.30;;;1.73;;
43297;SDS011;28892;55.640;37.532;2023-04-30T10:59:37;5.13;;;2.08;;
43297;SDS011;28892;55.640;37.532;2023-04-30T11:02:08;2.67;;;2.33;;
43297;SDS011;28892;55.640;37.532;2023-04-30T11:07:58;2.40;;;1.90;;
43297;SDS011;28892;55.640;37.532;2023-04-30T11:10:27;3.17;;;1.88;;
43297;SDS011;28892;55.640;37.532;2023-04-30T11:13:02;2.45;;;1.98;;
43297;SDS011;28892;55.640;37.532;2023-04-30T11:15:40;4.78;;;1.90;;
43297;SDS011;28892;55.640;37.532;2023-04-30T11:18:22;3.13;;;1.80;;
43297;SDS011;28892;55.640;37.532;2023-04-30T11:21:05;5.32;;;2.22;;
43297;SDS011;28892;55.640;37.532;2023-04-30T11:28:50;3.92;;;2.47;;
43297;SDS011;28892;55.640;37.532;2023-04-30T11:31:52;3.60;;;2.03;;
43297;SDS011;28892;55.640;37.532;2023-04-30T11:43:03;8.05;;;2.10;;
43297;SDS011;28892;55.640;37.532;2023-04-30T11:48:53;3.47;;;1.90;;
43297;SDS011;28892;55.640;37.532;2023-04-30T11:52:00;2.45;;;2.08;;
43297;SDS011;28892;55.640;37.532;2023-04-30T11:59:18;3.97;;;2.58;;
43297;SDS011;28892;55.640;37.532;2023-04-30T12:02:04;3.85;;;2.40;;
43297;SDS011;28892;55.640;37.532;2023-04-30T12:04:55;4.88;;;2.50;;
43297;SDS011;28892;55.640;37.532;2023-04-30T12:08:31;5.25;;;2.30;;
43297;SDS011;28892;55.640;37.532;2023-04-30T12:27:06;3.40;;;2.15;;
43297;SDS011;28892;55.640;37.532;2023-04-30T12:29:51;4.07;;;2.78;;
43297;SDS011;28892;55.640;37.532;2023-04-30T12:32:22;5.85;;;2.67;;
43297;SDS011;28892;55.640;37.532;2023-04-30T12:37:47;4.13;;;2.42;;
43297;SDS011;28892;55.640;37.532;2023-04-30T12:40:32;4.97;;;2.28;;
43297;SDS011;28892;55.640;37.532;2023-04-30T12:46:08;3.47;;;2.45;;
43297;SDS011;28892;55.640;37.532;2023-04-30T12:48:42;5.07;;;2.85;;
43297;SDS011;28892;55.640;37.532;2023-04-30T12:51:42;4.22;;;2.63;;
43297;SDS011;28892;55.640;37.532;2023-04-30T12:57:22;3.38;;;2.47;;
43297;SDS011;28892;55.640;37.532;2023-04-30T12:59:55;4.45;;;2.47;;
43297;SDS011;28892;55.640;37.532;2023-04-30T13:02:26;7.20;;;2.53;;
43297;SDS011;28892;55.640;37.532;2023-04-30T13:05:05;5.35;;;2.90;;
43297;SDS011;28892;55.640;37.532;2023-04-30T13:11:06;6.70;;;2.95;;
43297;SDS011;28892;55.640;37.532;2023-04-30T13:17:30;5.28;;;2.47;;
43297;SDS011;28892;55.640;37.532;2023-04-30T13:20:04;6.07;;;3.10;;
43297;SDS011;28892;55.640;37.532;2023-04-30T13:22:31;5.20;;;2.97;;
43297;SDS011;28892;55.640;37.532;2023-04-30T13:24:58;7.32;;;3.78;;
43297;SDS011;28892;55.640;37.532;2023-04-30T13:27:39;4.45;;;2.50;;
43297;SDS011;28892;55.640;37.532;2023-04-30T13:30:31;4.50;;;2.83;;
43297;SDS011;28892;55.640;37.532;2023-04-30T13:33:17;4.72;;;2.85;;
43297;SDS011;28892;55.640;37.532;2023-04-30T13:36:19;4.60;;;2.65;;
43297;SDS011;28892;55.640;37.532;2023-04-30T13:38:48;8.18;;;2.80;;
43297;SDS011;28892;55.640;37.532;2023-04-30T13:41:18;6.32;;;2.60;;
43297;SDS011;28892;55.640;37.532;2023-04-30T13:43:48;7.25;;;3.25;;
43297;SDS011;28892;55.640;37.532;2023-04-30T13:46:14;3.67;;;2.53;;
43297;SDS011;28892;55.640;37.532;2023-04-30T13:48:40;7.15;;;2.90;;
43297;SDS011;28892;55.640;37.532;2023-04-30T13:51:07;5.18;;;2.60;;
43297;SDS011;28892;55.640;37.532;2023-04-30T13:53:33;5.53;;;2.75;;
43297;SDS011;28892;55.640;37.532;2023-04-30T13:56:01;3.53;;;2.85;;
43297;SDS011;28892;55.640;37.532;2023-04-30T13:58:33;2.97;;;2.20;;
43297;SDS011;28892;55.640;37.532;2023-04-30T14:01:13;5.30;;;3.00;;
43297;SDS011;28892;55.640;37.532;2023-04-30T14:11:46;5.95;;;3.40;;
43297;SDS011;28892;55.640;37.532;2023-04-30T14:14:45;5.22;;;3.30;;
43297;SDS011;28892;55.640;37.532;2023-04-30T14:17:12;3.10;;;2.70;;
43297;SDS011;28892;55.640;37.532;2023-04-30T14:24:14;3.45;;;2.65;;
43297;SDS011;28892;55.640;37.532;2023-04-30T14:35:23;6.28;;;3.00;;
43297;SDS011;28892;55.640;37.532;2023-04-30T14:38:32;6.97;;;4.68;;
43297;SDS011;28892;55.640;37.532;2023-04-30T14:43:45;4.53;;;3.05;;
43297;SDS011;28892;55.640;37.532;2023-04-30T15:04:15;4.90;;;2.78;;
43297;SDS011;28892;55.640;37.532;2023-04-30T15:07:22;4.85;;;3.08;;
43297;SDS011;28892;55.640;37.532;2023-04-30T15:10:02;6.63;;;3.10;;
43297;SDS011;28892;55.640;37.532;2023-04-30T15:12:44;8.05;;;3.13;;
43297;SDS011;28892;55.640;37.532;2023-04-30T15:15:27;6.57;;;3.67;;
43297;SDS011;28892;55.640;37.532;2023-04-30T15:17:55;4.32;;;3.00;;
43297;SDS011;28892;55.640;37.532;2023-04-30T15:20:51;6.22;;;3.60;;
43297;SDS011;28892;55.640;37.532;2023-04-30T15:23:40;7.13;;;3.35;;
43297;SDS011;28892;55.640;37.532;2023-04-30T15:26:12;4.00;;;3.35;;
43297;SDS011;28892;55.640;37.532;2023-04-30T15:28:48;6.90;;;3.67;;
43297;SDS011;28892;55.640;37.532;2023-04-30T15:34:36;7.90;;;4.13;;
43297;SDS011;28892;55.640;37.532;2023-04-30T15:37:42;5.93;;;2.97;;
43297;SDS011;28892;55.640;37.532;2023-04-30T15:40:11;3.70;;;2.83;;
43297;SDS011;28892;55.640;37.532;2023-04-30T15:43:13;8.00;;;3.67;;
43297;SDS011;28892;55.640;37.532;2023-04-30T15:49:10;6.55;;;2.95;;
43297;SDS011;28892;55.640;37.532;2023-04-30T15:52:34;9.90;;;3.88;;
43297;SDS011;28892;55.640;37.532;2023-04-30T15:55:03;4.05;;;3.25;;
43297;SDS011;28892;55.640;37.532;2023-04-30T15:57:39;5.88;;;3.65;;
43297;SDS011;28892;55.640;37.532;2023-04-30T16:00:07;4.75;;;3.72;;
43297;SDS011;28892;55.640;37.532;2023-04-30T16:02:38;5.28;;;3.72;;
43297;SDS011;28892;55.640;37.532;2023-04-30T16:05:12;4.93;;;3.60;;
43297;SDS011;28892;55.640;37.532;2023-04-30T16:07:54;5.03;;;3.30;;
43297;SDS011;28892;55.640;37.532;2023-04-30T16:10:22;7.05;;;3.80;;
43297;SDS011;28892;55.640;37.532;2023-04-30T16:12:49;7.22;;;3.47;;
43297;SDS011;28892;55.640;37.532;2023-04-30T16:15:15;6.55;;;3.50;;
43297;SDS011;28892;55.640;37.532;2023-04-30T16:17:41;5.57;;;3.22;;
43297;SDS011;28892;55.640;37.532;2023-04-30T16:20:07;6.47;;;2.95;;
43297;SDS011;28892;55.640;37.532;2023-04-30T16:22:39;5.93;;;2.88;;
43297;SDS011;28892;55.640;37.532;2023-04-30T16:25:06;3.78;;;3.10;;
43297;SDS011;28892;55.640;37.532;2023-04-30T16:27:34;3.90;;;2.97;;
43297;SDS011;28892;55.640;37.532;2023-04-30T16:30:08;6.10;;;3.30;;
43297;SDS011;28892;55.640;37.532;2023-04-30T16:32:36;6.70;;;3.53;;
43297;SDS011;28892;55.640;37.532;2023-04-30T16:35:09;6.23;;;2.83;;
43297;SDS011;28892;55.640;37.532;2023-04-30T16:40:35;5.10;;;3.50;;
43297;SDS011;28892;55.640;37.532;2023-04-30T16:43:10;5.88;;;3.50;;
43297;SDS011;28892;55.640;37.532;2023-04-30T16:46:08;5.18;;;3.75;;
43297;SDS011;28892;55.640;37.532;2023-04-30T16:48:43;6.20;;;4.10;;
43297;SDS011;28892;55.640;37.532;2023-04-30T16:51:10;7.60;;;4.00;;
43297;SDS011;28892;55.640;37.532;2023-04-30T16:53:53;7.85;;;4.35;;
43297;SDS011;28892;55.640;37.532;2023-04-30T16:56:25;6.85;;;4.30;;
43297;SDS011;28892;55.640;37.532;2023-04-30T16:59:03;7.13;;;4.30;;
43297;SDS011;28892;55.640;37.532;2023-04-30T17:01:32;7.47;;;4.90;;
43297;SDS011;28892;55.640;37.532;2023-04-30T17:05:08;8.18;;;5.82;;
43297;SDS011;28892;55.640;37.532;2023-04-30T17:07:35;6.70;;;4.38;;
43297;SDS011;28892;55.640;37.532;2023-04-30T17:10:05;9.13;;;4.40;;
43297;SDS011;28892;55.640;37.532;2023-04-30T17:12:32;7.70;;;4.28;;
43297;SDS011;28892;55.640;37.532;2023-04-30T17:14:58;6.97;;;4.65;;
43297;SDS011;28892;55.640;37.532;2023-04-30T17:17:27;6.03;;;5.32;;
43297;SDS011;28892;55.640;37.532;2023-04-30T17:19:55;8.38;;;5.43;;
43297;SDS011;28892;55.640;37.532;2023-04-30T17:25:17;7.40;;;4.57;;
43297;SDS011;28892;55.640;37.532;2023-04-30T17:27:44;8.55;;;5.00;;
43297;SDS011;28892;55.640;37.532;2023-04-30T17:30:46;6.78;;;4.80;;
43297;SDS011;28892;55.640;37.532;2023-04-30T17:33:12;5.97;;;4.75;;
43297;SDS011;28892;55.640;37.532;2023-04-30T17:35:42;10.00;;;5.68;;
43297;SDS011;28892;55.640;37.532;2023-04-30T17:38:11;6.57;;;5.05;;
43297;SDS011;28892;55.640;37.532;2023-04-30T17:40:37;6.20;;;4.70;;
43297;SDS011;28892;55.640;37.532;2023-04-30T17:43:11;6.53;;;4.85;;
43297;SDS011;28892;55.640;37.532;2023-04-30T17:45:40;5.28;;;4.50;;
43297;SDS011;28892;55.640;37.532;2023-04-30T17:48:29;6.57;;;4.40;;
43297;SDS011;28892;55.640;37.532;2023-04-30T17:51:05;10.68;;;4.53;;
43297;SDS011;28892;55.640;37.532;2023-04-30T17:56:39;7.82;;;4.70;;
43297;SDS011;28892;55.640;37.532;2023-04-30T17:59:05;5.45;;;4.03;;
43297;SDS011;28892;55.640;37.532;2023-04-30T18:01:32;5.40;;;4.50;;
43297;SDS011;28892;55.640;37.532;2023-04-30T18:04:08;7.50;;;4.90;;
43297;SDS011;28892;55.640;37.532;2023-04-30T18:09:57;5.45;;;4.60;;
43297;SDS011;28892;55.640;37.532;2023-04-30T18:12:36;7.47;;;5.10;;
43297;SDS011;28892;55.640;37.532;2023-04-30T18:15:06;7.72;;;5.00;;
43297;SDS011;28892;55.640;37.532;2023-04-30T18:17:37;8.35;;;5.88;;
43297;SDS011;28892;55.640;37.532;2023-04-30T18:27:53;6.38;;;4.32;;
43297;SDS011;28892;55.640;37.532;2023-04-30T18:34:12;5.25;;;3.85;;
43297;SDS011;28892;55.640;37.532;2023-04-30T18:36:48;6.65;;;3.92;;
43297;SDS011;28892;55.640;37.532;2023-04-30T18:43:06;5.65;;;4.22;;
43297;SDS011;28892;55.640;37.532;2023-04-30T18:45:44;8.52;;;4.43;;
43297;SDS011;28892;55.640;37.532;2023-04-30T18:48:14;6.25;;;4.75;;
43297;SDS011;28892;55.640;37.532;2023-04-30T18:50:41;5.45;;;4.18;;